Time;durP1;ratioP1;P1;durP2;ratioP2;P2;SDS_P1;SDS_P2;PMS_P1;PMS_P2;Temp;Humidity;BMP_temperature;BMP_pressure;BME280_temperature;BME280_humidity;BME280_pressure;Samples;Min_cycle;Max_cycle;Signal;HPM_P1;HPM_P2
2023/10/13 00:01:54;;;;;;;77.15;35.92;;;14.60;99.90;;;;;;5091535;28;20036;-47
2023/10/13 00:04:24;;;;;;;90.35;38.30;;;14.50;99.90;;;;;;5091529;28;20386;-47
2023/10/13 00:06:59;;;;;;;98.90;40.30;;;14.60;99.90;;;;;;5092273;28;20036;-49
2023/10/13 00:09:37;;;;;;;115.95;41.88;;;14.60;99.90;;;;;;5095285;28;20063;-50
2023/10/13 00:12:04;;;;;;;107.30;40.40;;;14.60;99.90;;;;;;5095337;28;20097;-48
2023/10/13 00:14:33;;;;;;;94.55;40.05;;;14.60;99.90;;;;;;5095136;28;20508;-49
2023/10/13 00:17:15;;;;;;;96.97;37.97;;;14.90;99.90;;;;;;5095068;28;20047;-47
2023/10/13 00:19:45;;;;;;;104.95;41.05;;;14.90;99.90;;;;;;5095072;28;20486;-47
2023/10/13 00:22:12;;;;;;;90.68;39.35;;;14.90;99.90;;;;;;5094837;28;20498;-47
2023/10/13 00:24:45;;;;;;;85.57;38.50;;;14.80;99.90;;;;;;5095195;28;20048;-47
2023/10/13 00:32:55;;;;;;;82.97;36.97;;;15.00;99.90;;;;;;5073353;28;20052;-49
2023/10/13 00:35:25;;;;;;;89.68;37.75;;;15.10;99.90;;;;;;5095300;28;20686;-46
2023/10/13 00:37:54;;;;;;;93.18;38.58;;;15.10;99.90;;;;;;5094404;28;20028;-47
2023/10/13 00:42:59;;;;;;;81.97;37.15;;;15.00;99.90;;;;;;5094494;28;20048;-47
2023/10/13 00:45:28;;;;;;;75.85;37.45;;;15.20;99.90;;;;;;5094228;28;20498;-48
2023/10/13 00:48:01;;;;;;;72.60;34.90;;;15.30;99.90;;;;;;5094717;28;20043;-47
2023/10/13 00:50:27;;;;;;;81.82;37.47;;;15.30;99.90;;;;;;5084242;28;20045;-47
2023/10/13 00:52:54;;;;;;;84.95;38.47;;;15.30;99.90;;;;;;5092415;28;20111;-49
2023/10/13 00:55:22;;;;;;;77.30;35.88;;;15.20;99.90;;;;;;5094498;28;20149;-48
2023/10/13 00:57:57;;;;;;;93.15;38.53;;;15.30;99.90;;;;;;5094462;28;20043;-46
2023/10/13 01:00:28;;;;;;;72.28;34.85;;;15.20;99.90;;;;;;5094447;28;20114;-46
2023/10/13 01:02:55;;;;;;;87.15;37.80;;;15.30;99.90;;;;;;5094338;28;20096;-48
2023/10/13 01:05:23;;;;;;;90.50;37.15;;;15.50;99.90;;;;;;5094229;28;20045;-48
2023/10/13 01:07:54;;;;;;;80.05;34.35;;;15.50;99.90;;;;;;5093854;28;20035;-47
2023/10/13 01:10:27;;;;;;;83.63;36.28;;;15.60;99.90;;;;;;5094216;28;20594;-46
2023/10/13 01:12:53;;;;;;;78.35;36.30;;;15.50;99.90;;;;;;5094127;28;20043;-51
2023/10/13 01:15:22;;;;;;;97.15;37.30;;;15.40;99.90;;;;;;5094201;28;20401;-46
2023/10/13 01:17:49;;;;;;;78.07;35.00;;;15.50;99.90;;;;;;5093125;28;20567;-47
2023/10/13 01:20:24;;;;;;;96.00;38.28;;;15.50;99.90;;;;;;5093686;28;20389;-48
2023/10/13 01:22:55;;;;;;;84.15;37.15;;;15.70;99.90;;;;;;5093989;28;20040;-48
2023/10/13 01:25:27;;;;;;;76.50;34.65;;;15.70;99.90;;;;;;5094094;28;20044;-47
2023/10/13 01:27:53;;;;;;;90.43;36.78;;;15.70;99.90;;;;;;5093684;28;20075;-50
2023/10/13 01:30:24;;;;;;;85.95;37.15;;;15.60;99.90;;;;;;5093738;28;20044;-50
2023/10/13 01:32:51;;;;;;;79.72;36.38;;;15.80;99.90;;;;;;5093431;28;20063;-50
2023/10/13 01:35:27;;;;;;;80.70;34.40;;;15.80;99.90;;;;;;5093621;28;20490;-47
2023/10/13 01:37:52;;;;;;;72.57;33.05;;;15.80;99.90;;;;;;5093467;28;20039;-47
2023/10/13 01:40:20;;;;;;;67.55;31.98;;;15.90;99.90;;;;;;5093568;28;20052;-48
2023/10/13 01:42:46;;;;;;;77.10;32.22;;;15.70;99.90;;;;;;5093590;28;20136;-50
2023/10/13 01:45:14;;;;;;;75.28;31.40;;;15.70;99.90;;;;;;5093203;28;20474;-47
2023/10/13 01:47:41;;;;;;;62.00;30.02;;;15.70;99.90;;;;;;5093442;28;20048;-49
2023/10/13 01:50:15;;;;;;;70.68;30.15;;;15.70;99.90;;;;;;5093250;28;20036;-46
2023/10/13 01:52:43;;;;;;;59.88;28.77;;;15.80;99.90;;;;;;5093424;28;20050;-47
2023/10/13 01:55:11;;;;;;;61.03;27.50;;;15.80;99.90;;;;;;5093574;28;20032;-49
2023/10/13 01:57:37;;;;;;;60.45;28.13;;;15.80;99.90;;;;;;5093314;28;20044;-50
2023/10/13 02:00:11;;;;;;;47.88;24.55;;;16.10;99.90;;;;;;5093650;28;20036;-47
2023/10/13 02:02:44;;;;;;;52.55;24.83;;;16.10;99.90;;;;;;5092777;28;20048;-47
2023/10/13 02:05:10;;;;;;;59.20;25.38;;;16.10;99.90;;;;;;5093322;28;20046;-47
2023/10/13 02:07:38;;;;;;;57.30;24.90;;;16.10;99.90;;;;;;5092845;28;20040;-48
2023/10/13 02:10:05;;;;;;;45.10;23.40;;;16.10;99.90;;;;;;5093073;28;20044;-47
2023/10/13 02:12:42;;;;;;;48.17;24.08;;;15.90;99.90;;;;;;5092632;28;20363;-46
2023/10/13 02:15:20;;;;;;;50.95;24.35;;;16.10;99.90;;;;;;5093153;28;20039;-49
2023/10/13 02:17:51;;;;;;;55.30;22.83;;;16.00;99.90;;;;;;5092459;28;20107;-46
2023/10/13 02:20:18;;;;;;;44.33;21.63;;;16.20;99.90;;;;;;5092978;28;20102;-48
2023/10/13 02:22:50;;;;;;;42.63;21.77;;;16.10;99.90;;;;;;5092666;28;20036;-49
2023/10/13 02:28:08;;;;;;;44.72;21.00;;;16.10;99.90;;;;;;5093114;28;20039;-52
2023/10/13 02:30:38;;;;;;;45.13;22.20;;;16.10;99.90;;;;;;5074403;28;20059;-49
2023/10/13 02:33:06;;;;;;;40.25;21.40;;;16.30;99.90;;;;;;5092118;28;20052;-49
2023/10/13 02:35:41;;;;;;;48.55;21.83;;;16.20;99.90;;;;;;5074577;28;20123;-46
2023/10/13 02:38:11;;;;;;;41.17;20.98;;;16.00;99.90;;;;;;5092505;28;20047;-51
2023/10/13 02:40:38;;;;;;;42.42;20.90;;;16.30;99.90;;;;;;5092647;28;20115;-48
2023/10/13 02:43:07;;;;;;;38.40;21.30;;;16.20;99.90;;;;;;5092205;28;20038;-48
2023/10/13 02:45:35;;;;;;;;;;;16.20;99.90;;;;;;5093106;28;20040;-49
2023/10/13 02:51:06;;;;;;;27.60;16.40;;;16.10;99.90;;;;;;5058297;28;20153;-48
2023/10/13 02:53:32;;;;;;;43.80;19.65;;;16.40;99.90;;;;;;5092005;28;20047;-51
2023/10/13 02:56:04;;;;;;;36.13;18.98;;;16.30;99.90;;;;;;5092274;28;20508;-48
2023/10/13 02:58:38;;;;;;;32.40;18.92;;;16.30;99.90;;;;;;5092357;28;20052;-47
2023/10/13 03:01:17;;;;;;;30.52;18.15;;;16.20;99.90;;;;;;5092439;28;20115;-48
2023/10/13 03:03:58;;;;;;;37.80;21.30;;;16.40;99.90;;;;;;5091688;28;20036;-48
2023/10/13 03:06:31;;;;;;;46.15;22.15;;;16.20;99.90;;;;;;5092144;28;20469;-48
2023/10/13 03:09:13;;;;;;;49.35;25.80;;;16.20;99.90;;;;;;5092205;28;20044;-47
2023/10/13 03:11:47;;;;;;;44.25;24.25;;;16.40;99.90;;;;;;5091990;28;20486;-47
2023/10/13 03:14:23;;;;;;;52.10;25.80;;;16.20;99.90;;;;;;5091917;28;20032;-49
2023/10/13 03:17:06;;;;;;;50.38;26.33;;;16.20;99.90;;;;;;5092006;28;20048;-48
2023/10/13 03:19:36;;;;;;;53.45;26.98;;;16.40;99.90;;;;;;5091961;28;20401;-49
2023/10/13 03:22:09;;;;;;;52.80;27.90;;;16.50;99.90;;;;;;5091865;28;20028;-48
2023/10/13 03:24:36;;;;;;;59.92;28.23;;;16.20;99.90;;;;;;5091963;28;20113;-47
2023/10/13 03:27:08;;;;;;;62.28;29.67;;;16.30;99.90;;;;;;5091533;28;20047;-49
2023/10/13 03:29:42;;;;;;;57.60;28.90;;;16.50;99.90;;;;;;5091757;28;20083;-47
2023/10/13 03:32:15;;;;;;;57.28;29.48;;;16.20;99.90;;;;;;5091497;28;20195;-51
2023/10/13 03:37:38;;;;;;;55.08;28.45;;;16.40;99.90;;;;;;5091691;28;20500;-48
2023/10/13 03:43:06;;;;;;;49.22;26.60;;;16.30;99.90;;;;;;5094454;28;20084;-47
2023/10/13 03:45:42;;;;;;;44.88;23.10;;;16.30;99.90;;;;;;5096032;28;20040;-49
2023/10/13 03:48:28;;;;;;;42.35;22.33;;;16.60;99.90;;;;;;5095543;28;20398;-46
2023/10/13 03:51:03;;;;;;;39.65;20.20;;;16.60;99.90;;;;;;5095731;28;20470;-48
2023/10/13 03:53:33;;;;;;;33.85;20.42;;;16.30;99.90;;;;;;5095678;28;20089;-51
2023/10/13 03:56:08;;;;;;;33.67;18.25;;;16.40;99.90;;;;;;5095718;28;20463;-46
2023/10/13 03:58:45;;;;;;;29.02;18.13;;;16.20;99.90;;;;;;5095311;28;20371;-46
2023/10/13 04:01:15;;;;;;;34.47;19.20;;;16.50;99.90;;;;;;5095618;28;20040;-48
2023/10/13 04:03:57;;;;;;;27.02;16.90;;;16.30;99.90;;;;;;5095028;28;20062;-47
2023/10/13 04:17:22;;;;;;;31.15;18.23;;;16.30;99.90;;;;;;5095273;28;20047;-49
2023/10/13 04:25:52;;;;;;;31.17;18.08;;;16.60;99.90;;;;;;5066075;28;20086;-49
2023/10/13 04:36:13;;;;;;;30.77;16.40;;;16.30;99.90;;;;;;5115106;28;20512;-48
2023/10/13 04:38:57;;;;;;;31.80;17.30;;;16.40;99.90;;;;;;5115346;28;20093;-48
2023/10/13 04:49:35;;;;;;;26.73;16.38;;;16.50;99.90;;;;;;5114907;28;20502;-47
2023/10/13 05:46:35;;;;;;;14.68;11.10;;;16.50;99.90;;;;;;5113860;28;20489;-48
2023/10/13 05:51:46;;;;;;;9.98;8.40;;;16.40;99.90;;;;;;5113207;28;20046;-47
2023/10/13 06:29:36;;;;;;;9.35;6.88;;;16.10;99.90;;;;;;5112831;28;20070;-47
2023/10/13 06:32:10;;;;;;;6.47;5.75;;;16.30;99.90;;;;;;5110616;28;20059;-49
2023/10/13 06:34:47;;;;;;;6.65;5.90;;;16.10;99.90;;;;;;5092497;28;20078;-47
2023/10/13 06:37:22;;;;;;;6.95;6.25;;;16.10;99.90;;;;;;5092499;28;20040;-47
2023/10/13 06:39:56;;;;;;;10.65;7.00;;;16.10;99.90;;;;;;5092774;28;20371;-50
2023/10/13 06:42:27;;;;;;;8.57;6.38;;;16.10;99.90;;;;;;5074499;28;20375;-48
2023/10/13 06:44:54;;;;;;;8.30;6.50;;;16.10;99.90;;;;;;5075148;28;20044;-47
2023/10/13 06:47:21;;;;;;;8.40;6.40;;;16.30;99.90;;;;;;5092554;28;20040;-49
2023/10/13 06:49:50;;;;;;;7.30;6.13;;;16.20;99.90;;;;;;5092350;28;20040;-48
2023/10/13 06:52:17;;;;;;;6.78;5.05;;;16.40;99.90;;;;;;5073603;28;20040;-46
2023/10/13 06:54:43;;;;;;;8.10;5.30;;;16.40;99.90;;;;;;5091706;28;20107;-49
2023/10/13 06:57:20;;;;;;;5.22;4.72;;;16.30;99.90;;;;;;5089491;28;20534;-51
2023/10/13 06:59:46;;;;;;;6.63;4.47;;;16.30;99.90;;;;;;5073446;28;20101;-48
2023/10/13 07:02:21;;;;;;;12.98;5.35;;;16.20;99.90;;;;;;5091500;28;20113;-50
2023/10/13 07:05:11;;;;;;;6.38;4.45;;;16.30;99.90;;;;;;5091598;28;20119;-48
2023/10/13 07:07:39;;;;;;;6.75;4.22;;;16.70;99.90;;;;;;5091308;28;20548;-48
2023/10/13 07:10:12;;;;;;;10.32;5.10;;;16.60;99.90;;;;;;5091767;28;20039;-46
2023/10/13 07:12:43;;;;;;;9.25;5.20;;;16.40;99.90;;;;;;5091752;28;20389;-45
2023/10/13 07:17:44;;;;;;;10.00;4.90;;;16.60;99.90;;;;;;5090785;28;20553;-51
2023/10/13 07:20:57;;;;;;;10.30;4.60;;;16.60;99.90;;;;;;5091769;28;20047;-48
2023/10/13 07:23:06;;;;;;;9.90;4.73;;;16.70;99.90;;;;;;5066071;28;20116;-47
2023/10/13 07:25:33;;;;;;;11.07;5.28;;;16.60;99.90;;;;;;5088225;28;20040;-47
2023/10/13 07:28:00;;;;;;;13.50;6.00;;;16.50;99.90;;;;;;5068930;28;20122;-49
2023/10/13 07:30:27;;;;;;;15.82;6.47;;;16.70;99.90;;;;;;5086637;28;20487;-47
2023/10/13 07:32:54;;;;;;;10.95;4.93;;;16.70;99.90;;;;;;5078504;28;20048;-47
2023/10/13 07:35:26;;;;;;;10.25;5.65;;;16.50;99.90;;;;;;5091688;28;20051;-50
2023/10/13 07:37:52;;;;;;;12.75;4.60;;;16.50;99.90;;;;;;5091302;28;20036;-49
2023/10/13 07:43:00;;;;;;;14.32;5.55;;;16.60;99.90;;;;;;5091539;28;20040;-48
2023/10/13 07:45:35;;;;;;;13.70;6.05;;;16.40;99.90;;;;;;5091463;28;20047;-49
2023/10/13 07:48:20;;;;;;;10.23;5.75;;;16.30;99.90;;;;;;5091645;28;20047;-49
2023/10/13 07:51:11;;;;;;;14.40;6.15;;;16.40;99.90;;;;;;5091821;28;20055;-47
2023/10/13 07:53:40;;;;;;;11.90;5.35;;;16.30;99.90;;;;;;5091365;28;20044;-48
2023/10/13 07:56:11;;;;;;;14.38;5.60;;;16.30;99.90;;;;;;5091462;28;20464;-49
2023/10/13 07:58:52;;;;;;;14.77;5.72;;;16.60;99.90;;;;;;5091304;28;20036;-49
2023/10/13 08:01:21;;;;;;;12.93;5.70;;;16.30;99.90;;;;;;5091462;28;20055;-51
2023/10/13 08:03:57;;;;;;;20.05;5.60;;;16.30;99.90;;;;;;5089967;28;20102;-51
2023/10/13 08:06:26;;;;;;;19.55;5.75;;;16.60;99.90;;;;;;5091492;28;20036;-49
2023/10/13 08:08:59;;;;;;;15.00;6.28;;;16.50;99.90;;;;;;5089831;28;20036;-46
2023/10/13 08:11:25;;;;;;;18.00;6.03;;;16.40;99.90;;;;;;5091429;28;20052;-48
2023/10/13 08:14:10;;;;;;;18.15;6.22;;;16.40;99.90;;;;;;5091479;28;20076;-50
2023/10/13 08:16:48;;;;;;;11.48;5.30;;;16.60;99.90;;;;;;5090175;28;20366;-49
2023/10/13 08:19:15;;;;;;;9.10;5.93;;;16.30;99.90;;;;;;5091026;28;20032;-49
2023/10/13 08:21:49;;;;;;;13.50;5.30;;;16.60;99.90;;;;;;5091475;28;20061;-50
2023/10/13 08:24:15;;;;;;;14.70;6.43;;;16.40;99.90;;;;;;5091172;28;20075;-50
2023/10/13 08:42:52;;;;;;;16.83;6.75;;;16.70;99.90;;;;;;5094720;28;20044;-49
2023/10/13 08:59:04;;;;;;;15.75;6.63;;;17.00;99.90;;;;;;5094254;28;20044;-50
2023/10/13 09:01:34;;;;;;;16.75;6.78;;;16.80;99.90;;;;;;5094267;28;20044;-48
2023/10/13 09:04:20;;;;;;;12.88;6.28;;;17.00;99.90;;;;;;5094201;28;20125;-45
2023/10/13 09:07:25;;;;;;;16.80;7.55;;;16.90;99.90;;;;;;5094469;28;20085;-47
2023/10/13 09:12:14;;;;;;;15.80;6.90;;;17.20;99.90;;;;;;5093822;28;20044;-48
2023/10/13 09:14:46;;;;;;;20.23;7.82;;;17.20;99.90;;;;;;5093980;28;20036;-45
2023/10/13 09:17:34;;;;;;;17.83;7.43;;;17.20;99.90;;;;;;5094145;28;20043;-45
2023/10/13 09:20:11;;;;;;;14.50;7.47;;;17.30;99.90;;;;;;5094024;28;20044;-46
2023/10/13 09:22:37;;;;;;;18.40;7.25;;;17.60;99.90;;;;;;5093792;28;20082;-48
2023/10/13 09:25:13;;;;;;;17.70;7.38;;;17.70;99.90;;;;;;5092752;28;20090;-46
2023/10/13 09:27:39;;;;;;;14.73;7.45;;;17.70;99.90;;;;;;5093638;28;20040;-48
2023/10/13 09:30:18;;;;;;;20.70;7.40;;;17.80;99.90;;;;;;5092309;28;20073;-48
2023/10/13 09:33:04;;;;;;;14.73;7.32;;;17.70;99.90;;;;;;5093810;28;20048;-47
2023/10/13 09:35:33;;;;;;;17.30;6.40;;;17.80;99.90;;;;;;5093544;28;20071;-49
2023/10/13 09:38:03;;;;;;;17.38;7.85;;;18.00;99.90;;;;;;5093268;28;20118;-46
2023/10/13 09:43:07;;;;;;;13.95;6.68;;;18.00;99.90;;;;;;5093406;28;20043;-45
2023/10/13 09:45:40;;;;;;;14.02;6.80;;;18.00;99.90;;;;;;5093559;28;20147;-46
2023/10/13 09:48:21;;;;;;;16.30;6.90;;;18.10;99.90;;;;;;5093524;28;20032;-47
2023/10/13 09:50:48;;;;;;;13.85;7.32;;;18.30;99.90;;;;;;5093053;28;20059;-45
2023/10/13 09:53:18;;;;;;;19.13;7.13;;;18.20;99.90;;;;;;5093540;28;20493;-47
2023/10/13 09:56:13;;;;;;;14.05;6.13;;;18.20;99.90;;;;;;5093151;28;20501;-45
2023/10/13 09:58:51;;;;;;;15.65;6.60;;;18.30;99.90;;;;;;5093061;28;20043;-46
2023/10/13 10:01:37;;;;;;;16.55;6.43;;;18.60;99.90;;;;;;5093103;28;20448;-50
2023/10/13 10:04:17;;;;;;;16.25;6.70;;;18.40;99.90;;;;;;5092890;28;20481;-47
2023/10/13 10:07:00;;;;;;;12.07;5.90;;;18.70;99.90;;;;;;5093057;28;20043;-48
2023/10/13 10:09:39;;;;;;;13.38;6.15;;;18.70;99.90;;;;;;5092845;28;20032;-50
2023/10/13 10:12:29;;;;;;;11.70;5.43;;;18.60;99.90;;;;;;5093036;28;20390;-47
2023/10/13 10:15:13;;;;;;;;;;;18.70;99.90;;;;;;5082131;28;20040;-47
2023/10/13 10:17:43;;;;;;;12.70;5.85;;;18.70;99.90;;;;;;5092692;28;19920;-45
2023/10/13 10:20:19;;;;;;;12.57;5.68;;;18.60;99.90;;;;;;5092812;28;20051;-47
2023/10/13 10:23:00;;;;;;;13.88;5.60;;;18.80;99.90;;;;;;5092552;28;20067;-46
2023/10/13 10:25:35;;;;;;;16.65;5.72;;;18.80;99.90;;;;;;5092859;28;20051;-47
2023/10/13 10:28:05;;;;;;;13.25;5.90;;;18.80;99.90;;;;;;5079564;28;20032;-48
2023/10/13 10:30:38;;;;;;;13.00;5.53;;;18.80;99.90;;;;;;5092822;28;20040;-47
2023/10/13 10:33:15;;;;;;;16.48;6.18;;;18.90;99.90;;;;;;5087269;28;20047;-48
2023/10/13 10:35:46;;;;;;;15.27;5.72;;;19.00;99.90;;;;;;5112848;28;20065;-45
2023/10/13 10:38:24;;;;;;;12.55;5.30;;;19.00;99.90;;;;;;5113035;28;20070;-46
2023/10/13 10:41:00;;;;;;;15.13;5.88;;;19.10;99.90;;;;;;5112802;28;20039;-48
2023/10/13 10:43:51;;;;;;;15.20;5.70;;;19.10;99.90;;;;;;5112677;28;20060;-47
2023/10/13 10:46:42;;;;;;;18.45;5.90;;;19.20;99.90;;;;;;5112555;28;20050;-46
2023/10/13 10:49:08;;;;;;;19.38;6.18;;;19.30;99.90;;;;;;5112611;28;20505;-46
2023/10/13 10:51:43;;;;;;;20.33;5.93;;;19.30;99.90;;;;;;5112134;28;20557;-48
2023/10/13 10:54:19;;;;;;;13.82;6.07;;;19.30;99.90;;;;;;5112901;28;20045;-46
2023/10/13 10:56:52;;;;;;;17.90;5.50;;;19.30;99.90;;;;;;5112263;28;20109;-47
2023/10/13 10:59:19;;;;;;;21.23;6.13;;;19.40;99.90;;;;;;5112357;28;20031;-49
2023/10/13 11:01:52;;;;;;;15.75;5.70;;;19.40;99.90;;;;;;5112365;28;20473;-46
2023/10/13 11:04:18;;;;;;;19.80;5.30;;;19.50;99.90;;;;;;5112513;28;20113;-46
2023/10/13 11:06:47;;;;;;;13.50;5.13;;;19.60;99.90;;;;;;5094329;28;20095;-46
2023/10/13 11:09:31;;;;;;;21.13;5.82;;;19.70;99.90;;;;;;5112192;28;20039;-45
2023/10/13 11:12:27;;;;;;;18.13;6.45;;;19.70;99.90;;;;;;5112427;28;20047;-47
2023/10/13 11:15:33;;;;;;;22.50;5.70;;;19.70;99.90;;;;;;5112339;28;20070;-46
2023/10/13 11:17:55;;;;;;;18.55;5.93;;;19.90;99.90;;;;;;5111342;28;20062;-46
2023/10/13 11:20:35;;;;;;;16.60;5.75;;;19.90;99.90;;;;;;5112210;28;20043;-49
2023/10/13 11:23:04;;;;;;;16.10;5.63;;;19.80;99.90;;;;;;5112144;28;20115;-45
2023/10/13 11:25:34;;;;;;;13.45;5.50;;;19.80;99.90;;;;;;5112049;28;20040;-46
2023/10/13 11:28:20;;;;;;;14.05;5.28;;;19.70;99.90;;;;;;5111978;28;20051;-46
2023/10/13 11:30:50;;;;;;;14.82;5.63;;;19.70;99.90;;;;;;5111492;28;20078;-46
2023/10/13 11:33:29;;;;;;;19.48;4.97;;;19.70;99.90;;;;;;5101693;28;20036;-48
2023/10/13 11:35:56;;;;;;;17.75;6.03;;;19.80;99.90;;;;;;5091689;28;20044;-46
2023/10/13 11:38:26;;;;;;;19.90;5.45;;;19.90;99.90;;;;;;5091449;28;20175;-46
2023/10/13 11:43:35;;;;;;;14.63;6.13;;;19.80;99.90;;;;;;5083022;28;20056;-47
2023/10/13 11:48:36;;;;;;;19.40;6.72;;;19.60;99.90;;;;;;5091378;28;20067;-46
2023/10/13 11:51:31;;;;;;;18.08;6.45;;;19.50;99.90;;;;;;5091405;28;20040;-47
2023/10/13 11:53:58;;;;;;;19.88;6.43;;;19.50;99.90;;;;;;5091399;28;20028;-47
2023/10/13 11:56:24;;;;;;;15.55;6.70;;;19.30;99.90;;;;;;5091532;28;20036;-48
2023/10/13 11:58:51;;;;;;;15.80;5.72;;;19.30;99.90;;;;;;5091233;28;20092;-49
2023/10/13 12:09:41;;;;;;;17.88;6.53;;;19.20;99.90;;;;;;5095303;28;20117;-46
2023/10/13 12:12:05;;;;;;;14.25;6.47;;;19.20;99.90;;;;;;5095103;28;20160;-46
2023/10/13 12:14:52;;;;;;;16.55;6.47;;;19.20;99.90;;;;;;5094877;28;20048;-47
2023/10/13 12:17:39;;;;;;;16.08;6.43;;;19.30;99.90;;;;;;5095116;28;20393;-48
2023/10/13 12:20:11;;;;;;;20.45;5.95;;;19.30;99.90;;;;;;5095451;28;20493;-46
2023/10/13 12:22:51;;;;;;;16.90;6.35;;;19.40;99.90;;;;;;5094828;28;20502;-50
2023/10/13 12:25:44;;;;;;;18.75;6.43;;;19.40;99.90;;;;;;5095217;28;20040;-46
2023/10/13 12:28:18;;;;;;;15.00;6.10;;;19.40;99.90;;;;;;5094987;28;20055;-48
2023/10/13 12:30:53;;;;;;;23.35;6.18;;;19.50;99.90;;;;;;5094981;28;20113;-49
2023/10/13 12:33:25;;;;;;;14.82;6.28;;;19.50;99.90;;;;;;5080686;28;20067;-47
2023/10/13 12:52:16;;;;;;;21.13;7.72;;;19.20;99.90;;;;;;5094730;28;20043;-49
2023/10/13 12:54:47;;;;;;;17.60;7.10;;;19.10;99.90;;;;;;5094303;28;20036;-48
2023/10/13 12:57:15;;;;;;;18.30;6.38;;;19.10;99.90;;;;;;5094269;28;20110;-48
2023/10/13 12:59:44;;;;;;;19.95;7.30;;;19.10;99.90;;;;;;5094382;28;20070;-51
2023/10/13 13:02:14;;;;;;;22.25;8.15;;;19.00;99.90;;;;;;5094288;28;20078;-47
2023/10/13 13:04:44;;;;;;;25.45;7.78;;;19.00;99.90;;;;;;5094279;28;20036;-45
2023/10/13 13:07:13;;;;;;;19.38;8.68;;;19.00;99.90;;;;;;5041902;28;20067;-46
2023/10/13 13:09:40;;;;;;;18.85;9.15;;;18.90;99.90;;;;;;5094064;28;20038;-49
2023/10/13 13:12:08;;;;;;;21.75;7.63;;;18.90;99.90;;;;;;5076354;28;20041;-50
2023/10/13 13:14:34;;;;;;;20.35;7.85;;;18.80;99.90;;;;;;5041235;28;20382;-48
2023/10/13 13:17:06;;;;;;;17.33;8.77;;;18.80;99.90;;;;;;5093975;28;20107;-47
2023/10/13 13:19:38;;;;;;;22.52;9.57;;;18.70;99.90;;;;;;5093809;28;20481;-46
2023/10/13 13:22:11;;;;;;;23.13;8.88;;;18.70;99.90;;;;;;5093888;28;20040;-48
2023/10/13 13:24:43;;;;;;;26.33;8.43;;;18.60;99.90;;;;;;5093777;28;20036;-50
2023/10/13 13:27:13;;;;;;;22.52;8.50;;;18.70;99.90;;;;;;5093890;28;20456;-45
2023/10/13 13:29:42;;;;;;;21.20;8.57;;;18.50;99.90;;;;;;5093557;28;20028;-46
2023/10/13 13:35:05;;;;;;;23.15;9.38;;;18.60;99.90;;;;;;5071668;28;20082;-49
2023/10/13 13:37:34;;;;;;;19.98;8.85;;;18.50;99.90;;;;;;5093382;28;20482;-47
2023/10/13 13:40:15;;;;;;;21.33;8.75;;;18.50;99.90;;;;;;5093385;28;20036;-45
2023/10/13 13:42:43;;;;;;;19.15;9.48;;;18.50;99.90;;;;;;5081345;28;20127;-46
2023/10/13 13:45:21;;;;;;;21.00;8.75;;;18.50;99.90;;;;;;5093352;28;20048;-46
2023/10/13 13:47:53;;;;;;;17.25;9.32;;;18.40;99.90;;;;;;5093051;28;20115;-48
2023/10/13 13:50:28;;;;;;;22.63;8.73;;;18.40;99.90;;;;;;5093230;28;20082;-47
2023/10/13 13:52:57;;;;;;;16.83;8.38;;;18.60;99.90;;;;;;5093387;28;20036;-51
2023/10/13 13:55:24;;;;;;;22.77;8.90;;;18.50;99.90;;;;;;5075678;28;20478;-50
2023/10/13 13:57:50;;;;;;;20.27;7.82;;;18.50;99.90;;;;;;5093007;28;20541;-50
2023/10/13 14:00:37;;;;;;;21.83;8.77;;;18.50;99.90;;;;;;5092835;28;20043;-47
2023/10/13 14:03:16;;;;;;;21.90;7.80;;;18.50;99.90;;;;;;5093321;28;20050;-50
2023/10/13 14:05:45;;;;;;;18.60;8.55;;;18.50;99.90;;;;;;5093103;28;20036;-50
2023/10/13 14:08:15;;;;;;;17.60;7.30;;;18.50;99.90;;;;;;5093079;28;20128;-46
2023/10/13 14:11:21;;;;;;;18.20;7.47;;;18.60;99.90;;;;;;5092800;28;20364;-50
2023/10/13 14:13:55;;;;;;;18.70;7.45;;;18.70;99.90;;;;;;5087957;28;20042;-49
2023/10/13 14:16:23;;;;;;;23.05;7.93;;;18.60;99.90;;;;;;5092979;28;20040;-50
2023/10/13 14:18:51;;;;;;;17.80;7.90;;;18.60;99.90;;;;;;5092836;28;20039;-50
2023/10/13 14:21:17;;;;;;;21.45;7.78;;;18.70;99.90;;;;;;5092656;28;20044;-51
2023/10/13 14:23:47;;;;;;;18.05;7.72;;;18.70;99.90;;;;;;5092631;28;20443;-51
2023/10/13 14:26:25;;;;;;;18.23;8.25;;;18.70;99.90;;;;;;5092200;28;20039;-49
2023/10/13 14:29:01;;;;;;;16.27;7.70;;;18.70;99.90;;;;;;5092665;28;20043;-46
2023/10/13 14:31:31;;;;;;;16.00;7.22;;;18.80;99.90;;;;;;5092372;28;20032;-50
2023/10/13 14:33:57;;;;;;;18.48;8.60;;;18.80;99.90;;;;;;5099908;28;20376;-47
2023/10/13 14:36:29;;;;;;;18.73;7.45;;;18.80;99.90;;;;;;5094988;28;20027;-49
2023/10/13 14:38:55;;;;;;;19.08;8.32;;;18.80;99.90;;;;;;5112920;28;20387;-49
2023/10/13 14:41:21;;;;;;;18.20;7.70;;;18.80;99.90;;;;;;5112593;28;20119;-47
2023/10/13 14:43:50;;;;;;;23.00;8.02;;;18.80;99.90;;;;;;5112815;28;20044;-45
2023/10/13 14:46:23;;;;;;;17.50;7.30;;;18.80;99.90;;;;;;5112571;28;20046;-46
2023/10/13 14:49:06;;;;;;;17.48;8.65;;;18.80;99.90;;;;;;5112672;28;20039;-48
2023/10/13 14:51:32;;;;;;;19.27;8.27;;;18.80;99.90;;;;;;5062414;28;20047;-47
2023/10/13 14:54:03;;;;;;;20.02;7.50;;;18.70;99.90;;;;;;5112604;28;20080;-46
2023/10/13 14:56:30;;;;;;;17.17;7.63;;;18.70;99.90;;;;;;5112549;28;20039;-46
2023/10/13 14:58:56;;;;;;;19.25;8.15;;;18.70;99.90;;;;;;5112749;28;20023;-47
2023/10/13 15:01:26;;;;;;;22.10;7.43;;;18.70;99.90;;;;;;5112297;28;20050;-49
2023/10/13 15:03:56;;;;;;;22.90;8.00;;;18.80;99.90;;;;;;5094596;28;20035;-46
2023/10/13 15:06:29;;;;;;;16.00;6.85;;;18.70;99.90;;;;;;5112218;28;20118;-45
2023/10/13 15:08:59;;;;;;;22.58;7.60;;;18.60;99.90;;;;;;5111904;28;20035;-47
2023/10/13 15:11:27;;;;;;;18.83;7.78;;;18.70;99.90;;;;;;5112156;28;20047;-45
2023/10/13 15:13:56;;;;;;;24.55;7.80;;;18.80;99.90;;;;;;5111872;28;20045;-47
2023/10/13 15:16:23;;;;;;;17.88;7.30;;;18.70;99.90;;;;;;5112311;28;20023;-50
2023/10/13 15:18:52;;;;;;;25.00;8.77;;;18.70;99.90;;;;;;5112126;28;20061;-47
2023/10/13 15:21:34;;;;;;;24.25;7.68;;;18.60;99.90;;;;;;5111965;28;20058;-47
2023/10/13 15:24:14;;;;;;;18.50;8.45;;;18.50;99.90;;;;;;5078760;28;20122;-49
2023/10/13 15:26:44;;;;;;;16.35;7.50;;;18.50;99.90;;;;;;5112205;28;20035;-45
2023/10/13 15:29:12;;;;;;;23.75;7.80;;;18.50;99.90;;;;;;5111928;28;20572;-47
2023/10/13 15:34:32;;;;;;;19.25;9.30;;;18.40;99.90;;;;;;5099298;28;20405;-47
2023/10/13 15:36:59;;;;;;;18.70;8.23;;;18.40;99.90;;;;;;5091112;28;20047;-50
2023/10/13 15:39:31;;;;;;;16.23;8.13;;;18.40;99.90;;;;;;5091605;28;20088;-48
2023/10/13 15:42:02;;;;;;;16.85;8.27;;;18.40;99.90;;;;;;5091639;28;20379;-47
2023/10/13 15:44:49;;;;;;;23.85;8.82;;;18.20;99.90;;;;;;5091327;28;20050;-47
2023/10/13 15:47:15;;;;;;;17.75;8.57;;;18.30;99.90;;;;;;5091352;28;20482;-48
2023/10/13 15:49:42;;;;;;;15.68;8.75;;;18.30;99.90;;;;;;5091578;28;20043;-46
2023/10/13 15:52:09;;;;;;;21.70;8.80;;;18.10;99.90;;;;;;5091312;28;20048;-46
2023/10/13 15:54:35;;;;;;;17.60;9.57;;;18.30;99.90;;;;;;5091340;28;20040;-47
2023/10/13 15:57:01;;;;;;;20.88;9.23;;;18.20;99.90;;;;;;5091167;28;20039;-48
2023/10/13 15:59:27;;;;;;;20.33;8.63;;;18.10;99.90;;;;;;5091314;28;20412;-48
2023/10/13 16:01:57;;;;;;;17.63;9.07;;;18.10;99.90;;;;;;5091234;28;20436;-47
2023/10/13 16:04:23;;;;;;;25.77;9.43;;;18.30;99.90;;;;;;5079482;28;20097;-48
2023/10/13 16:10:30;;;;;;;21.98;9.68;;;18.20;99.90;;;;;;5090868;28;20108;-49
2023/10/13 16:12:59;;;;;;;20.00;9.18;;;18.10;99.90;;;;;;5091553;28;20043;-47
2023/10/13 16:15:24;;;;;;;16.00;8.45;;;18.10;99.90;;;;;;5091487;28;20040;-48
2023/10/13 16:17:53;;;;;;;19.30;8.43;;;18.30;99.90;;;;;;5031073;28;20398;-50
2023/10/13 16:20:20;;;;;;;;;;;18.30;99.90;;;;;;5091642;28;20082;-46
2023/10/13 16:22:47;;;;;;;19.42;8.35;;;18.30;99.90;;;;;;5091025;28;19916;-47
2023/10/13 16:25:15;;;;;;;18.17;8.40;;;18.20;99.90;;;;;;5091402;28;20085;-49
2023/10/13 16:27:43;;;;;;;17.20;7.57;;;18.10;99.90;;;;;;5090897;28;20109;-48
2023/10/13 16:30:18;;;;;;;20.67;7.97;;;18.10;99.90;;;;;;5091284;28;20044;-51
2023/10/13 16:32:45;;;;;;;14.57;6.70;;;18.30;99.90;;;;;;5090998;28;20039;-51
2023/10/13 16:35:17;;;;;;;15.93;7.28;;;18.30;99.90;;;;;;5087291;28;20048;-51
2023/10/13 16:37:45;;;;;;;19.55;6.60;;;18.20;99.90;;;;;;5090925;28;20036;-51
2023/10/13 16:40:15;;;;;;;18.20;6.60;;;18.10;99.90;;;;;;5091083;28;20064;-49
2023/10/13 16:42:41;;;;;;;17.35;6.88;;;18.00;99.90;;;;;;5090828;28;20048;-48
2023/10/13 16:45:20;;;;;;;18.70;7.40;;;18.10;99.90;;;;;;5090983;28;20169;-50
2023/10/13 16:47:49;;;;;;;14.15;6.10;;;18.20;99.90;;;;;;5091062;28;20044;-50